Ameland Airport Ballum

EHAL · Friesland, 荷兰

罗盘
风向 的 风向 的 风向 到 风向 300° Ameland Airport Ballum 8/26
风: 10 kt, 3 beaufort

8 kt

5 kt
改变
0 ft 1.000 2.000 3.000 4.000 5.000
没有观察到明显的云
METAR EHMA 271925Z AUTO 30010KT 240V340 9999 NSC 05/00 Q1018

METAR Ameland Airport Ballum - EHAL

Ameland Airport Ballum是,荷兰中的小机场。 该机场位于纬度53,45361和经度5,67840。 该机场有一条跑道: 8/26. 本场的ICAO机场代码为EHAL。 机场在Amsterdam FIR中。

该航空气象观测是针对AWG-1在2024年2月27日 20:25, 当地时间进行的。

机场观察

风向为300°,速度为10 kt。 风向在240°和340°之间变化。

可见度为10 km 或者更多。

有没有观察到明显的云。 没有观察到天花板。

温度为5 °C,阵风为-1 °C。 海平面上的气压为1018 hPa (QNH)。

白天

今天,太阳从07:30升起,在18:09降落。 这适用于Ameland Airport Ballum,世界夏令时可能有所不同。 当地时间与世界标准时间之间的时差为+1 小时。 当前,没有夏令时有效。

公司介绍

在这个机场,你可以找到跳伞中心。 这个机场上的公司有Vliegles.nl, Paracentrum Ameland 和 Rondvluchten Ameland。

体会

你可以在这个机场与经验丰富的教练进行双人跳伞。 这些跳伞包括自由落体。 在Ameland Airport Ballum进行跳伞的费用是€ 209。 在这里预订Skydiving

跑道

Id 标题 侧风 逆风 侧风 %
8/26 087°-267° 5 kt 8 kt 54 %

逆风成分最大的方向会被突出显示,并用于横风计算。 这并不一定意味着这个方向在使用。

乌云

- NSC 没有观察到明显的云

温度 & 天气

温度 5 °C
露点 0 °C
相对湿度 70%
风寒 -1 °C
Kp-index 2 (0-9)

白天

日出
07:29 (10:52)
中午
12:49
日落
18:08

小工具

你想在你的网站上有一个关于Ameland Airport Ballum的当前航空天气(METAR)的小部件吗?

显示HTML代码
?>